sensor_id;sensor_type;location;lat;lon;timestamp;P1;durP1;ratioP1;P2;durP2;ratioP2
6348;SDS011;3207;42.648;23.406;2024-02-26T00:00:39;27.57;;;18.03;;
6348;SDS011;3207;42.648;23.406;2024-02-26T00:03:07;28.73;;;17.87;;
6348;SDS011;3207;42.648;23.406;2024-02-26T00:05:34;26.03;;;16.43;;
6348;SDS011;3207;42.648;23.406;2024-02-26T00:08:03;22.87;;;15.67;;
6348;SDS011;3207;42.648;23.406;2024-02-26T00:10:31;24.67;;;14.23;;
6348;SDS011;3207;42.648;23.406;2024-02-26T00:12:58;30.07;;;14.77;;
6348;SDS011;3207;42.648;23.406;2024-02-26T00:15:25;27.77;;;14.40;;
6348;SDS011;3207;42.648;23.406;2024-02-26T00:17:53;26.57;;;14.67;;
6348;SDS011;3207;42.648;23.406;2024-02-26T00:20:21;27.83;;;14.57;;
6348;SDS011;3207;42.648;23.406;2024-02-26T00:22:48;25.73;;;15.57;;
6348;SDS011;3207;42.648;23.406;2024-02-26T00:25:15;25.43;;;14.03;;
6348;SDS011;3207;42.648;23.406;2024-02-26T00:27:42;24.37;;;13.83;;
6348;SDS011;3207;42.648;23.406;2024-02-26T00:30:09;23.23;;;14.17;;
6348;SDS011;3207;42.648;23.406;2024-02-26T00:32:37;19.87;;;12.67;;
6348;SDS011;3207;42.648;23.406;2024-02-26T00:35:04;25.90;;;13.40;;
6348;SDS011;3207;42.648;23.406;2024-02-26T00:37:33;19.07;;;14.10;;
6348;SDS011;3207;42.648;23.406;2024-02-26T00:40:00;24.93;;;14.07;;
6348;SDS011;3207;42.648;23.406;2024-02-26T00:42:27;21.17;;;13.10;;
6348;SDS011;3207;42.648;23.406;2024-02-26T00:44:54;17.93;;;12.60;;
6348;SDS011;3207;42.648;23.406;2024-02-26T00:47:21;19.00;;;12.83;;
6348;SDS011;3207;42.648;23.406;2024-02-26T00:49:48;27.53;;;12.07;;
6348;SDS011;3207;42.648;23.406;2024-02-26T00:52:15;18.80;;;12.30;;
6348;SDS011;3207;42.648;23.406;2024-02-26T00:54:43;18.57;;;11.50;;
6348;SDS011;3207;42.648;23.406;2024-02-26T00:57:10;19.60;;;11.67;;
6348;SDS011;3207;42.648;23.406;2024-02-26T00:59:37;16.50;;;10.30;;
6348;SDS011;3207;42.648;23.406;2024-02-26T01:02:04;14.73;;;10.37;;
6348;SDS011;3207;42.648;23.406;2024-02-26T01:04:31;16.37;;;10.00;;
6348;SDS011;3207;42.648;23.406;2024-02-26T01:06:59;15.93;;;11.23;;
6348;SDS011;3207;42.648;23.406;2024-02-26T01:09:26;18.57;;;11.53;;
6348;SDS011;3207;42.648;23.406;2024-02-26T01:11:54;17.30;;;11.60;;
6348;SDS011;3207;42.648;23.406;2024-02-26T01:14:21;15.80;;;11.70;;
6348;SDS011;3207;42.648;23.406;2024-02-26T01:16:48;18.53;;;10.67;;
6348;SDS011;3207;42.648;23.406;2024-02-26T01:19:15;14.93;;;10.03;;
6348;SDS011;3207;42.648;23.406;2024-02-26T01:21:42;17.27;;;9.17;;
6348;SDS011;3207;42.648;23.406;2024-02-26T01:24:09;16.23;;;9.80;;
6348;SDS011;3207;42.648;23.406;2024-02-26T01:26:36;16.13;;;9.90;;
6348;SDS011;3207;42.648;23.406;2024-02-26T01:29:04;19.97;;;10.30;;
6348;SDS011;3207;42.648;23.406;2024-02-26T01:31:31;15.13;;;9.70;;
6348;SDS011;3207;42.648;23.406;2024-02-26T01:33:58;13.73;;;9.63;;
6348;SDS011;3207;42.648;23.406;2024-02-26T01:36:25;15.43;;;9.73;;
6348;SDS011;3207;42.648;23.406;2024-02-26T01:38:52;12.53;;;8.67;;
6348;SDS011;3207;42.648;23.406;2024-02-26T01:41:19;12.57;;;8.60;;
6348;SDS011;3207;42.648;23.406;2024-02-26T01:43:45;13.80;;;7.97;;
6348;SDS011;3207;42.648;23.406;2024-02-26T01:46:14;13.23;;;8.90;;
6348;SDS011;3207;42.648;23.406;2024-02-26T01:48:42;15.27;;;9.47;;
6348;SDS011;3207;42.648;23.406;2024-02-26T01:51:12;12.87;;;8.97;;
6348;SDS011;3207;42.648;23.406;2024-02-26T01:53:42;13.43;;;9.57;;
6348;SDS011;3207;42.648;23.406;2024-02-26T01:56:10;12.60;;;8.87;;
6348;SDS011;3207;42.648;23.406;2024-02-26T01:58:38;9.67;;;8.43;;
6348;SDS011;3207;42.648;23.406;2024-02-26T02:01:05;14.77;;;9.57;;
6348;SDS011;3207;42.648;23.406;2024-02-26T02:03:33;14.13;;;9.07;;
6348;SDS011;3207;42.648;23.406;2024-02-26T02:06:00;12.27;;;8.33;;
6348;SDS011;3207;42.648;23.406;2024-02-26T02:08:28;11.73;;;8.10;;
6348;SDS011;3207;42.648;23.406;2024-02-26T02:10:54;11.57;;;7.57;;
6348;SDS011;3207;42.648;23.406;2024-02-26T02:13:22;10.63;;;7.60;;
6348;SDS011;3207;42.648;23.406;2024-02-26T02:15:49;9.93;;;7.63;;
6348;SDS011;3207;42.648;23.406;2024-02-26T02:18:16;16.17;;;9.70;;
6348;SDS011;3207;42.648;23.406;2024-02-26T02:20:45;10.63;;;7.33;;
6348;SDS011;3207;42.648;23.406;2024-02-26T02:23:12;10.37;;;8.67;;
6348;SDS011;3207;42.648;23.406;2024-02-26T02:25:39;8.03;;;5.90;;
6348;SDS011;3207;42.648;23.406;2024-02-26T02:28:06;13.97;;;7.10;;
6348;SDS011;3207;42.648;23.406;2024-02-26T02:30:33;10.73;;;6.60;;
6348;SDS011;3207;42.648;23.406;2024-02-26T02:33:01;14.40;;;6.07;;
6348;SDS011;3207;42.648;23.406;2024-02-26T02:35:28;9.17;;;6.67;;
6348;SDS011;3207;42.648;23.406;2024-02-26T02:37:56;7.47;;;5.97;;
6348;SDS011;3207;42.648;23.406;2024-02-26T02:40:24;8.67;;;6.57;;
6348;SDS011;3207;42.648;23.406;2024-02-26T02:42:51;8.33;;;5.93;;
6348;SDS011;3207;42.648;23.406;2024-02-26T02:45:18;13.90;;;7.13;;
6348;SDS011;3207;42.648;23.406;2024-02-26T02:47:45;10.67;;;5.80;;
6348;SDS011;3207;42.648;23.406;2024-02-26T02:50:11;9.17;;;6.17;;
6348;SDS011;3207;42.648;23.406;2024-02-26T02:52:38;8.03;;;6.33;;
6348;SDS011;3207;42.648;23.406;2024-02-26T02:55:08;11.33;;;5.70;;
6348;SDS011;3207;42.648;23.406;2024-02-26T02:57:34;9.50;;;6.77;;
6348;SDS011;3207;42.648;23.406;2024-02-26T03:00:06;13.40;;;7.60;;
6348;SDS011;3207;42.648;23.406;2024-02-26T03:02:34;10.40;;;7.47;;
6348;SDS011;3207;42.648;23.406;2024-02-26T03:05:02;13.50;;;7.27;;
6348;SDS011;3207;42.648;23.406;2024-02-26T03:07:29;10.80;;;7.30;;
6348;SDS011;3207;42.648;23.406;2024-02-26T03:09:56;10.50;;;7.60;;
6348;SDS011;3207;42.648;23.406;2024-02-26T03:12:24;14.63;;;9.73;;
6348;SDS011;3207;42.648;23.406;2024-02-26T03:14:53;15.17;;;9.30;;
6348;SDS011;3207;42.648;23.406;2024-02-26T03:17:20;13.17;;;9.30;;
6348;SDS011;3207;42.648;23.406;2024-02-26T03:19:49;15.37;;;9.23;;
6348;SDS011;3207;42.648;23.406;2024-02-26T03:22:18;14.67;;;9.63;;
6348;SDS011;3207;42.648;23.406;2024-02-26T03:24:45;13.40;;;8.87;;
6348;SDS011;3207;42.648;23.406;2024-02-26T03:27:12;16.43;;;8.90;;
6348;SDS011;3207;42.648;23.406;2024-02-26T03:29:41;14.50;;;9.00;;
6348;SDS011;3207;42.648;23.406;2024-02-26T03:32:08;14.03;;;8.70;;
6348;SDS011;3207;42.648;23.406;2024-02-26T03:34:35;18.17;;;10.57;;
6348;SDS011;3207;42.648;23.406;2024-02-26T03:37:04;16.20;;;11.20;;
6348;SDS011;3207;42.648;23.406;2024-02-26T03:39:31;17.47;;;11.80;;
6348;SDS011;3207;42.648;23.406;2024-02-26T03:41:58;19.13;;;12.27;;
6348;SDS011;3207;42.648;23.406;2024-02-26T03:44:25;21.57;;;11.87;;
6348;SDS011;3207;42.648;23.406;2024-02-26T03:46:53;20.53;;;11.97;;
6348;SDS011;3207;42.648;23.406;2024-02-26T03:49:20;16.40;;;10.13;;
6348;SDS011;3207;42.648;23.406;2024-02-26T03:51:48;16.47;;;11.30;;
6348;SDS011;3207;42.648;23.406;2024-02-26T03:54:15;17.07;;;10.40;;
6348;SDS011;3207;42.648;23.406;2024-02-26T03:56:42;16.33;;;10.40;;
6348;SDS011;3207;42.648;23.406;2024-02-26T03:59:08;14.67;;;10.40;;
6348;SDS011;3207;42.648;23.406;2024-02-26T04:01:35;12.67;;;9.83;;
6348;SDS011;3207;42.648;23.406;2024-02-26T04:04:04;14.50;;;9.77;;
6348;SDS011;3207;42.648;23.406;2024-02-26T04:06:32;17.17;;;10.83;;
6348;SDS011;3207;42.648;23.406;2024-02-26T04:08:59;16.63;;;10.30;;
6348;SDS011;3207;42.648;23.406;2024-02-26T04:11:28;17.77;;;10.43;;
6348;SDS011;3207;42.648;23.406;2024-02-26T04:13:55;15.97;;;10.97;;
6348;SDS011;3207;42.648;23.406;2024-02-26T04:16:22;19.70;;;11.17;;
6348;SDS011;3207;42.648;23.406;2024-02-26T04:18:49;17.27;;;12.90;;
6348;SDS011;3207;42.648;23.406;2024-02-26T04:21:20;18.43;;;13.20;;
6348;SDS011;3207;42.648;23.406;2024-02-26T04:23:47;17.30;;;13.07;;
6348;SDS011;3207;42.648;23.406;2024-02-26T04:26:14;25.57;;;13.47;;
6348;SDS011;3207;42.648;23.406;2024-02-26T04:28:41;18.50;;;12.37;;
6348;SDS011;3207;42.648;23.406;2024-02-26T04:31:08;19.47;;;12.50;;
6348;SDS011;3207;42.648;23.406;2024-02-26T04:33:35;20.00;;;12.03;;
6348;SDS011;3207;42.648;23.406;2024-02-26T04:36:02;17.83;;;12.33;;
6348;SDS011;3207;42.648;23.406;2024-02-26T04:38:31;18.33;;;12.87;;
6348;SDS011;3207;42.648;23.406;2024-02-26T04:40:57;19.93;;;13.30;;
6348;SDS011;3207;42.648;23.406;2024-02-26T04:43:24;20.00;;;13.20;;
6348;SDS011;3207;42.648;23.406;2024-02-26T04:45:51;22.00;;;12.23;;
6348;SDS011;3207;42.648;23.406;2024-02-26T04:48:18;21.20;;;11.93;;
6348;SDS011;3207;42.648;23.406;2024-02-26T04:50:45;17.10;;;11.77;;
6348;SDS011;3207;42.648;23.406;2024-02-26T04:53:12;15.87;;;11.27;;
6348;SDS011;3207;42.648;23.406;2024-02-26T04:55:41;19.73;;;11.40;;
6348;SDS011;3207;42.648;23.406;2024-02-26T04:58:08;16.30;;;10.17;;
6348;SDS011;3207;42.648;23.406;2024-02-26T05:00:35;16.57;;;11.50;;
6348;SDS011;3207;42.648;23.406;2024-02-26T05:03:02;17.90;;;11.27;;
6348;SDS011;3207;42.648;23.406;2024-02-26T05:05:30;20.10;;;11.73;;
6348;SDS011;3207;42.648;23.406;2024-02-26T05:07:59;18.43;;;11.63;;
6348;SDS011;3207;42.648;23.406;2024-02-26T05:10:28;20.37;;;11.07;;
6348;SDS011;3207;42.648;23.406;2024-02-26T05:12:56;15.40;;;12.10;;
6348;SDS011;3207;42.648;23.406;2024-02-26T05:15:23;16.23;;;12.10;;
6348;SDS011;3207;42.648;23.406;2024-02-26T05:17:50;20.60;;;11.70;;
6348;SDS011;3207;42.648;23.406;2024-02-26T05:20:18;14.17;;;10.67;;
6348;SDS011;3207;42.648;23.406;2024-02-26T05:22:45;18.43;;;12.40;;
6348;SDS011;3207;42.648;23.406;2024-02-26T05:25:14;19.20;;;13.47;;
6348;SDS011;3207;42.648;23.406;2024-02-26T05:27:41;21.60;;;15.70;;
6348;SDS011;3207;42.648;23.406;2024-02-26T05:30:11;21.57;;;14.67;;
6348;SDS011;3207;42.648;23.406;2024-02-26T05:32:39;27.43;;;16.03;;
6348;SDS011;3207;42.648;23.406;2024-02-26T05:35:06;25.97;;;16.43;;
6348;SDS011;3207;42.648;23.406;2024-02-26T05:37:33;24.77;;;15.50;;
6348;SDS011;3207;42.648;23.406;2024-02-26T05:40:00;25.17;;;16.47;;
6348;SDS011;3207;42.648;23.406;2024-02-26T05:42:29;23.53;;;16.70;;
6348;SDS011;3207;42.648;23.406;2024-02-26T05:44:57;20.87;;;13.17;;
6348;SDS011;3207;42.648;23.406;2024-02-26T05:47:25;20.97;;;14.07;;
6348;SDS011;3207;42.648;23.406;2024-02-26T05:49:52;28.40;;;16.30;;
6348;SDS011;3207;42.648;23.406;2024-02-26T05:52:20;27.30;;;15.63;;
6348;SDS011;3207;42.648;23.406;2024-02-26T05:54:47;22.57;;;13.10;;
6348;SDS011;3207;42.648;23.406;2024-02-26T05:57:14;16.90;;;11.60;;
6348;SDS011;3207;42.648;23.406;2024-02-26T05:59:41;18.50;;;10.20;;
6348;SDS011;3207;42.648;23.406;2024-02-26T06:02:08;13.80;;;8.83;;
6348;SDS011;3207;42.648;23.406;2024-02-26T06:04:36;14.77;;;8.70;;
6348;SDS011;3207;42.648;23.406;2024-02-26T06:07:03;11.30;;;8.93;;
6348;SDS011;3207;42.648;23.406;2024-02-26T06:09:31;12.43;;;8.07;;
6348;SDS011;3207;42.648;23.406;2024-02-26T06:11:58;10.17;;;7.87;;
6348;SDS011;3207;42.648;23.406;2024-02-26T06:14:25;15.00;;;8.93;;
6348;SDS011;3207;42.648;23.406;2024-02-26T06:16:53;22.43;;;8.60;;
6348;SDS011;3207;42.648;23.406;2024-02-26T06:19:20;13.33;;;9.77;;
6348;SDS011;3207;42.648;23.406;2024-02-26T06:21:48;15.93;;;9.03;;
6348;SDS011;3207;42.648;23.406;2024-02-26T06:24:16;14.00;;;9.18;;
6348;SDS011;3207;42.648;23.406;2024-02-26T06:26:43;13.82;;;9.05;;
6348;SDS011;3207;42.648;23.406;2024-02-26T06:29:10;14.85;;;9.40;;
6348;SDS011;3207;42.648;23.406;2024-02-26T06:31:37;21.00;;;10.25;;
6348;SDS011;3207;42.648;23.406;2024-02-26T06:34:04;17.00;;;9.68;;
6348;SDS011;3207;42.648;23.406;2024-02-26T06:36:31;12.88;;;9.23;;
6348;SDS011;3207;42.648;23.406;2024-02-26T06:39:02;18.65;;;10.18;;
6348;SDS011;3207;42.648;23.406;2024-02-26T06:41:33;13.05;;;10.25;;
6348;SDS011;3207;42.648;23.406;2024-02-26T06:44:01;14.95;;;10.45;;
6348;SDS011;3207;42.648;23.406;2024-02-26T06:46:28;15.05;;;10.45;;
6348;SDS011;3207;42.648;23.406;2024-02-26T06:48:56;13.05;;;10.35;;
6348;SDS011;3207;42.648;23.406;2024-02-26T06:51:22;17.30;;;12.60;;
6348;SDS011;3207;42.648;23.406;2024-02-26T06:53:50;13.57;;;11.80;;
6348;SDS011;3207;42.648;23.406;2024-02-26T06:56:18;13.40;;;12.02;;
6348;SDS011;3207;42.648;23.406;2024-02-26T06:58:45;14.50;;;13.02;;
6348;SDS011;3207;42.648;23.406;2024-02-26T07:01:14;19.45;;;15.13;;
6348;SDS011;3207;42.648;23.406;2024-02-26T07:03:41;17.60;;;15.20;;
6348;SDS011;3207;42.648;23.406;2024-02-26T07:06:08;16.38;;;14.88;;
6348;SDS011;3207;42.648;23.406;2024-02-26T07:08:35;18.17;;;16.33;;
6348;SDS011;3207;42.648;23.406;2024-02-26T07:11:02;18.60;;;16.70;;
6348;SDS011;3207;42.648;23.406;2024-02-26T07:13:34;20.85;;;15.65;;
6348;SDS011;3207;42.648;23.406;2024-02-26T07:16:02;17.98;;;16.25;;
6348;SDS011;3207;42.648;23.406;2024-02-26T07:18:29;18.55;;;15.60;;
6348;SDS011;3207;42.648;23.406;2024-02-26T07:20:56;16.70;;;14.98;;
6348;SDS011;3207;42.648;23.406;2024-02-26T07:23:23;17.02;;;15.35;;
6348;SDS011;3207;42.648;23.406;2024-02-26T07:25:50;18.75;;;16.95;;
6348;SDS011;3207;42.648;23.406;2024-02-26T07:28:18;16.80;;;15.25;;
6348;SDS011;3207;42.648;23.406;2024-02-26T07:30:46;17.80;;;16.10;;
6348;SDS011;3207;42.648;23.406;2024-02-26T07:33:13;17.27;;;15.60;;
6348;SDS011;3207;42.648;23.406;2024-02-26T07:35:40;16.67;;;15.00;;
6348;SDS011;3207;42.648;23.406;2024-02-26T07:38:07;19.88;;;17.77;;
6348;SDS011;3207;42.648;23.406;2024-02-26T07:40:35;17.85;;;15.70;;
6348;SDS011;3207;42.648;23.406;2024-02-26T07:43:02;16.15;;;14.55;;
6348;SDS011;3207;42.648;23.406;2024-02-26T07:45:29;22.27;;;20.27;;
6348;SDS011;3207;42.648;23.406;2024-02-26T07:47:57;18.35;;;16.08;;
6348;SDS011;3207;42.648;23.406;2024-02-26T07:50:24;14.88;;;13.60;;
6348;SDS011;3207;42.648;23.406;2024-02-26T07:52:51;17.77;;;16.17;;
6348;SDS011;3207;42.648;23.406;2024-02-26T07:55:19;16.98;;;15.45;;
6348;SDS011;3207;42.648;23.406;2024-02-26T07:57:47;12.95;;;11.63;;
6348;SDS011;3207;42.648;23.406;2024-02-26T08:00:14;15.40;;;13.90;;
6348;SDS011;3207;42.648;23.406;2024-02-26T08:02:42;15.60;;;14.30;;
6348;SDS011;3207;42.648;23.406;2024-02-26T08:05:11;13.65;;;12.25;;
6348;SDS011;3207;42.648;23.406;2024-02-26T08:07:38;13.63;;;11.68;;
6348;SDS011;3207;42.648;23.406;2024-02-26T08:10:05;12.77;;;11.68;;
6348;SDS011;3207;42.648;23.406;2024-02-26T08:12:33;12.48;;;11.38;;
6348;SDS011;3207;42.648;23.406;2024-02-26T08:15:00;11.93;;;10.93;;
6348;SDS011;3207;42.648;23.406;2024-02-26T08:17:27;11.32;;;10.30;;
6348;SDS011;3207;42.648;23.406;2024-02-26T08:19:54;12.23;;;11.07;;
6348;SDS011;3207;42.648;23.406;2024-02-26T08:22:22;11.75;;;10.63;;
6348;SDS011;3207;42.648;23.406;2024-02-26T08:24:51;11.82;;;10.73;;
6348;SDS011;3207;42.648;23.406;2024-02-26T08:27:17;12.00;;;10.80;;
6348;SDS011;3207;42.648;23.406;2024-02-26T08:29:44;11.88;;;10.52;;
6348;SDS011;3207;42.648;23.406;2024-02-26T08:32:11;12.75;;;11.55;;
6348;SDS011;3207;42.648;23.406;2024-02-26T08:34:38;11.90;;;10.80;;
6348;SDS011;3207;42.648;23.406;2024-02-26T08:37:06;12.40;;;11.20;;
6348;SDS011;3207;42.648;23.406;2024-02-26T08:39:34;12.50;;;11.35;;
6348;SDS011;3207;42.648;23.406;2024-02-26T08:42:01;13.30;;;11.90;;
6348;SDS011;3207;42.648;23.406;2024-02-26T08:44:28;13.68;;;12.32;;
6348;SDS011;3207;42.648;23.406;2024-02-26T08:46:55;18.60;;;11.60;;
6348;SDS011;3207;42.648;23.406;2024-02-26T08:49:22;11.70;;;10.38;;
6348;SDS011;3207;42.648;23.406;2024-02-26T08:51:49;10.98;;;9.93;;
6348;SDS011;3207;42.648;23.406;2024-02-26T08:54:16;11.18;;;9.90;;
6348;SDS011;3207;42.648;23.406;2024-02-26T08:56:44;10.65;;;9.65;;
6348;SDS011;3207;42.648;23.406;2024-02-26T08:59:11;10.65;;;9.68;;
6348;SDS011;3207;42.648;23.406;2024-02-26T09:01:41;13.05;;;8.65;;
6348;SDS011;3207;42.648;23.406;2024-02-26T09:04:08;9.23;;;8.13;;
6348;SDS011;3207;42.648;23.406;2024-02-26T09:06:35;11.70;;;9.40;;
6348;SDS011;3207;42.648;23.406;2024-02-26T09:09:02;12.70;;;8.90;;
6348;SDS011;3207;42.648;23.406;2024-02-26T09:11:29;10.15;;;9.25;;
6348;SDS011;3207;42.648;23.406;2024-02-26T09:13:58;9.85;;;8.52;;
6348;SDS011;3207;42.648;23.406;2024-02-26T09:16:25;8.45;;;7.20;;
6348;SDS011;3207;42.648;23.406;2024-02-26T09:18:52;7.57;;;6.85;;
6348;SDS011;3207;42.648;23.406;2024-02-26T09:21:19;8.02;;;7.28;;
6348;SDS011;3207;42.648;23.406;2024-02-26T09:23:48;8.75;;;7.40;;
6348;SDS011;3207;42.648;23.406;2024-02-26T09:26:15;8.27;;;7.32;;
6348;SDS011;3207;42.648;23.406;2024-02-26T09:28:42;9.45;;;7.40;;
6348;SDS011;3207;42.648;23.406;2024-02-26T09:31:11;8.15;;;7.45;;
6348;SDS011;3207;42.648;23.406;2024-02-26T09:33:41;11.85;;;8.13;;
6348;SDS011;3207;42.648;23.406;2024-02-26T09:36:09;7.45;;;6.32;;
6348;SDS011;3207;42.648;23.406;2024-02-26T09:38:36;10.25;;;7.20;;
6348;SDS011;3207;42.648;23.406;2024-02-26T09:41:05;6.55;;;5.95;;
6348;SDS011;3207;42.648;23.406;2024-02-26T09:43:33;6.85;;;6.25;;
6348;SDS011;3207;42.648;23.406;2024-02-26T09:46:01;5.97;;;5.18;;
6348;SDS011;3207;42.648;23.406;2024-02-26T09:48:30;7.75;;;5.85;;
6348;SDS011;3207;42.648;23.406;2024-02-26T09:50:59;4.88;;;4.07;;
6348;SDS011;3207;42.648;23.406;2024-02-26T09:53:27;6.95;;;4.55;;
6348;SDS011;3207;42.648;23.406;2024-02-26T09:55:57;5.82;;;4.95;;
6348;SDS011;3207;42.648;23.406;2024-02-26T09:58:24;4.15;;;3.65;;
6348;SDS011;3207;42.648;23.406;2024-02-26T10:00:55;3.72;;;3.40;;
6348;SDS011;3207;42.648;23.406;2024-02-26T10:03:25;3.08;;;2.88;;
6348;SDS011;3207;42.648;23.406;2024-02-26T10:05:58;3.35;;;3.08;;
6348;SDS011;3207;42.648;23.406;2024-02-26T10:08:27;5.22;;;3.47;;
6348;SDS011;3207;42.648;23.406;2024-02-26T10:10:56;3.08;;;2.80;;
6348;SDS011;3207;42.648;23.406;2024-02-26T10:13:23;3.08;;;2.88;;
6348;SDS011;3207;42.648;23.406;2024-02-26T10:15:52;3.00;;;2.80;;
6348;SDS011;3207;42.648;23.406;2024-02-26T10:18:19;3.53;;;3.15;;
6348;SDS011;3207;42.648;23.406;2024-02-26T10:21:00;3.80;;;3.40;;
6348;SDS011;3207;42.648;23.406;2024-02-26T10:23:27;3.47;;;3.03;;
6348;SDS011;3207;42.648;23.406;2024-02-26T10:25:54;4.43;;;3.60;;
6348;SDS011;3207;42.648;23.406;2024-02-26T10:28:21;3.13;;;2.90;;
6348;SDS011;3207;42.648;23.406;2024-02-26T10:30:50;4.00;;;3.13;;
6348;SDS011;3207;42.648;23.406;2024-02-26T10:33:18;3.63;;;3.03;;
6348;SDS011;3207;42.648;23.406;2024-02-26T10:35:45;4.80;;;3.70;;
6348;SDS011;3207;42.648;23.406;2024-02-26T10:38:14;4.50;;;3.15;;
6348;SDS011;3207;42.648;23.406;2024-02-26T10:40:45;3.28;;;3.03;;
6348;SDS011;3207;42.648;23.406;2024-02-26T10:43:12;3.05;;;2.85;;
6348;SDS011;3207;42.648;23.406;2024-02-26T10:45:40;3.13;;;2.90;;
6348;SDS011;3207;42.648;23.406;2024-02-26T10:48:09;2.78;;;2.58;;
6348;SDS011;3207;42.648;23.406;2024-02-26T10:50:38;3.45;;;2.55;;
6348;SDS011;3207;42.648;23.406;2024-02-26T10:53:08;3.55;;;2.58;;
6348;SDS011;3207;42.648;23.406;2024-02-26T10:55:42;4.47;;;2.78;;
6348;SDS011;3207;42.648;23.406;2024-02-26T10:58:12;2.63;;;2.50;;
6348;SDS011;3207;42.648;23.406;2024-02-26T11:00:41;3.65;;;2.60;;
6348;SDS011;3207;42.648;23.406;2024-02-26T11:03:08;2.80;;;2.60;;
6348;SDS011;3207;42.648;23.406;2024-02-26T11:05:36;2.70;;;2.50;;
6348;SDS011;3207;42.648;23.406;2024-02-26T11:08:06;2.83;;;2.53;;
6348;SDS011;3207;42.648;23.406;2024-02-26T11:10:33;2.55;;;2.45;;
6348;SDS011;3207;42.648;23.406;2024-02-26T11:13:02;2.08;;;1.98;;
6348;SDS011;3207;42.648;23.406;2024-02-26T11:15:31;2.42;;;2.33;;
6348;SDS011;3207;42.648;23.406;2024-02-26T11:17:59;2.92;;;2.72;;
6348;SDS011;3207;42.648;23.406;2024-02-26T11:20:28;3.78;;;3.42;;
6348;SDS011;3207;42.648;23.406;2024-02-26T11:22:58;2.97;;;2.67;;
6348;SDS011;3207;42.648;23.406;2024-02-26T11:25:25;3.13;;;2.78;;
6348;SDS011;3207;42.648;23.406;2024-02-26T11:27:53;3.28;;;2.97;;
6348;SDS011;3207;42.648;23.406;2024-02-26T11:30:25;3.53;;;2.70;;
6348;SDS011;3207;42.648;23.406;2024-02-26T11:32:56;3.80;;;3.50;;
6348;SDS011;3207;42.648;23.406;2024-02-26T11:35:24;3.22;;;2.92;;
6348;SDS011;3207;42.648;23.406;2024-02-26T11:37:52;3.50;;;3.20;;
6348;SDS011;3207;42.648;23.406;2024-02-26T11:40:22;3.55;;;3.25;;
6348;SDS011;3207;42.648;23.406;2024-02-26T11:42:49;3.22;;;3.03;;
6348;SDS011;3207;42.648;23.406;2024-02-26T11:48:24;3.10;;;2.90;;
6348;SDS011;3207;42.648;23.406;2024-02-26T11:50:52;3.10;;;2.90;;
6348;SDS011;3207;42.648;23.406;2024-02-26T11:53:20;3.83;;;3.22;;
6348;SDS011;3207;42.648;23.406;2024-02-26T11:55:48;3.30;;;2.80;;
6348;SDS011;3207;42.648;23.406;2024-02-26T11:58:15;3.25;;;3.03;;
6348;SDS011;3207;42.648;23.406;2024-02-26T12:00:42;3.22;;;2.92;;
6348;SDS011;3207;42.648;23.406;2024-02-26T12:03:10;3.22;;;2.80;;
6348;SDS011;3207;42.648;23.406;2024-02-26T12:05:38;2.88;;;2.67;;
6348;SDS011;3207;42.648;23.406;2024-02-26T12:08:06;3.45;;;2.55;;
6348;SDS011;3207;42.648;23.406;2024-02-26T12:10:35;2.83;;;2.63;;
6348;SDS011;3207;42.648;23.406;2024-02-26T12:13:05;2.80;;;2.60;;
6348;SDS011;3207;42.648;23.406;2024-02-26T12:15:36;2.53;;;2.33;;
6348;SDS011;3207;42.648;23.406;2024-02-26T12:18:04;2.75;;;2.55;;
6348;SDS011;3207;42.648;23.406;2024-02-26T12:20:34;3.85;;;2.72;;
6348;SDS011;3207;42.648;23.406;2024-02-26T12:23:04;2.50;;;2.38;;
6348;SDS011;3207;42.648;23.406;2024-02-26T12:25:31;3.58;;;2.40;;
6348;SDS011;3207;42.648;23.406;2024-02-26T12:27:59;4.03;;;2.38;;
6348;SDS011;3207;42.648;23.406;2024-02-26T12:30:27;2.63;;;2.42;;
6348;SDS011;3207;42.648;23.406;2024-02-26T12:32:56;3.92;;;2.47;;
6348;SDS011;3207;42.648;23.406;2024-02-26T12:35:25;3.65;;;2.60;;
6348;SDS011;3207;42.648;23.406;2024-02-26T12:37:55;3.80;;;2.30;;
6348;SDS011;3207;42.648;23.406;2024-02-26T12:40:22;2.20;;;2.10;;
6348;SDS011;3207;42.648;23.406;2024-02-26T12:42:49;2.35;;;2.05;;
6348;SDS011;3207;42.648;23.406;2024-02-26T12:45:18;3.08;;;2.30;;
6348;SDS011;3207;42.648;23.406;2024-02-26T12:47:49;2.88;;;1.98;;
6348;SDS011;3207;42.648;23.406;2024-02-26T12:50:16;2.55;;;2.35;;
6348;SDS011;3207;42.648;23.406;2024-02-26T12:52:43;4.97;;;2.35;;
6348;SDS011;3207;42.648;23.406;2024-02-26T12:55:14;2.38;;;2.20;;
6348;SDS011;3207;42.648;23.406;2024-02-26T12:57:45;2.90;;;2.15;;
6348;SDS011;3207;42.648;23.406;2024-02-26T13:00:15;2.58;;;1.92;;
6348;SDS011;3207;42.648;23.406;2024-02-26T13:02:44;1.88;;;1.77;;
6348;SDS011;3207;42.648;23.406;2024-02-26T13:05:13;2.58;;;2.38;;
6348;SDS011;3207;42.648;23.406;2024-02-26T13:07:41;1.88;;;1.77;;
6348;SDS011;3207;42.648;23.406;2024-02-26T13:10:09;3.15;;;1.80;;
6348;SDS011;3207;42.648;23.406;2024-02-26T13:12:42;2.10;;;2.00;;
6348;SDS011;3207;42.648;23.406;2024-02-26T13:15:14;2.75;;;2.42;;
6348;SDS011;3207;42.648;23.406;2024-02-26T13:17:42;5.72;;;2.15;;
6348;SDS011;3207;42.648;23.406;2024-02-26T13:20:09;3.30;;;2.55;;
6348;SDS011;3207;42.648;23.406;2024-02-26T13:22:36;2.75;;;2.55;;
6348;SDS011;3207;42.648;23.406;2024-02-26T13:25:04;2.97;;;2.67;;
6348;SDS011;3207;42.648;23.406;2024-02-26T13:27:32;4.00;;;2.42;;
6348;SDS011;3207;42.648;23.406;2024-02-26T13:30:05;2.60;;;2.40;;
6348;SDS011;3207;42.648;23.406;2024-02-26T13:32:35;3.03;;;2.60;;
6348;SDS011;3207;42.648;23.406;2024-02-26T13:35:04;2.25;;;2.10;;
6348;SDS011;3207;42.648;23.406;2024-02-26T13:37:32;2.75;;;2.55;;
6348;SDS011;3207;42.648;23.406;2024-02-26T13:39:59;2.58;;;2.38;;
6348;SDS011;3207;42.648;23.406;2024-02-26T13:42:29;2.92;;;2.72;;
6348;SDS011;3207;42.648;23.406;2024-02-26T13:44:56;3.78;;;2.80;;
6348;SDS011;3207;42.648;23.406;2024-02-26T13:47:25;3.47;;;2.85;;
6348;SDS011;3207;42.648;23.406;2024-02-26T13:49:52;3.00;;;2.70;;
6348;SDS011;3207;42.648;23.406;2024-02-26T13:52:19;4.45;;;2.60;;
6348;SDS011;3207;42.648;23.406;2024-02-26T13:54:46;2.45;;;2.20;;
6348;SDS011;3207;42.648;23.406;2024-02-26T13:57:13;3.13;;;2.67;;
6348;SDS011;3207;42.648;23.406;2024-02-26T13:59:40;3.03;;;2.72;;
6348;SDS011;3207;42.648;23.406;2024-02-26T14:02:10;8.60;;;3.10;;
6348;SDS011;3207;42.648;23.406;2024-02-26T14:04:38;2.58;;;2.35;;
6348;SDS011;3207;42.648;23.406;2024-02-26T14:07:05;2.53;;;2.30;;
6348;SDS011;3207;42.648;23.406;2024-02-26T14:09:33;3.20;;;2.53;;
6348;SDS011;3207;42.648;23.406;2024-02-26T14:12:00;3.53;;;2.35;;
6348;SDS011;3207;42.648;23.406;2024-02-26T14:14:27;3.33;;;2.35;;
6348;SDS011;3207;42.648;23.406;2024-02-26T14:16:57;3.55;;;2.35;;
6348;SDS011;3207;42.648;23.406;2024-02-26T14:19:25;2.60;;;2.40;;
6348;SDS011;3207;42.648;23.406;2024-02-26T14:21:54;2.80;;;2.42;;
6348;SDS011;3207;42.648;23.406;2024-02-26T14:24:21;2.28;;;2.08;;
6348;SDS011;3207;42.648;23.406;2024-02-26T14:26:48;2.75;;;2.33;;
6348;SDS011;3207;42.648;23.406;2024-02-26T14:29:15;2.72;;;2.50;;
6348;SDS011;3207;42.648;23.406;2024-02-26T14:31:42;3.40;;;1.90;;
6348;SDS011;3207;42.648;23.406;2024-02-26T14:34:09;2.90;;;2.30;;
6348;SDS011;3207;42.648;23.406;2024-02-26T14:36:36;2.65;;;2.50;;
6348;SDS011;3207;42.648;23.406;2024-02-26T14:39:05;3.90;;;2.05;;
6348;SDS011;3207;42.648;23.406;2024-02-26T14:41:31;2.53;;;2.33;;
6348;SDS011;3207;42.648;23.406;2024-02-26T14:44:01;4.55;;;2.40;;
6348;SDS011;3207;42.648;23.406;2024-02-26T14:46:28;4.95;;;2.90;;
6348;SDS011;3207;42.648;23.406;2024-02-26T14:48:55;2.95;;;2.35;;
6348;SDS011;3207;42.648;23.406;2024-02-26T14:51:23;3.20;;;2.28;;
6348;SDS011;3207;42.648;23.406;2024-02-26T14:53:50;3.22;;;2.60;;